createdAt,value
2019-02-28T00:00:44.000Z,6.10
2019-02-28T00:03:16.556Z,5.63
2019-02-28T00:05:46.133Z,5.60
2019-02-28T00:08:21.549Z,5.73
2019-02-28T00:10:50.983Z,4.90
2019-02-28T00:13:21.734Z,4.70
2019-02-28T00:15:51.122Z,5.57
2019-02-28T00:18:24.210Z,6.10
2019-02-28T00:20:54.422Z,6.03
2019-02-28T00:23:23.546Z,5.40
2019-02-28T00:25:55.236Z,6.00
2019-02-28T00:28:25.768Z,6.67
2019-02-28T00:30:55.273Z,4.43
2019-02-28T00:33:24.384Z,5.37
2019-02-28T00:35:53.590Z,5.67
2019-02-28T00:38:22.991Z,5.83
2019-02-28T00:40:54.507Z,6.50
2019-02-28T00:43:25.131Z,5.40
2019-02-28T00:45:54.662Z,5.70
2019-02-28T00:48:23.756Z,5.63
2019-02-28T00:50:55.023Z,3.90
2019-02-28T00:53:23.712Z,5.03
2019-02-28T00:55:52.919Z,5.07
2019-02-28T00:58:28.593Z,4.90
2019-02-28T01:00:55.691Z,4.77
2019-02-28T01:03:27.670Z,5.30
2019-02-28T01:05:56.962Z,5.57
2019-02-28T01:08:30.569Z,5.47
2019-02-28T01:11:01.436Z,6.70
2019-02-28T01:13:30.541Z,5.23
2019-02-28T01:16:00.961Z,4.83
2019-02-28T01:18:34.436Z,5.53
2019-02-28T01:21:01.088Z,6.27
2019-02-28T01:23:30.279Z,5.97
2019-02-28T01:26:02.853Z,6.20
2019-02-28T01:28:33.090Z,5.10
2019-02-28T01:31:11.627Z,5.43
2019-02-28T01:33:38.768Z,5.37
2019-02-28T01:36:07.868Z,4.97
2019-02-28T01:38:36.961Z,5.57
2019-02-28T01:41:08.327Z,5.20
2019-02-28T01:43:36.986Z,7.27
2019-02-28T01:46:06.133Z,5.10
2019-02-28T01:48:36.970Z,5.77
2019-02-28T01:51:06.129Z,4.80
2019-02-28T01:53:35.282Z,5.33
2019-02-28T01:56:07.403Z,5.10
2019-02-28T01:58:37.017Z,5.60
2019-02-28T02:01:09.152Z,6.47
2019-02-28T02:03:41.750Z,5.57
2019-02-28T02:06:14.026Z,5.70
2019-02-28T02:08:46.144Z,5.03
2019-02-28T02:11:17.717Z,5.80
2019-02-28T02:13:49.805Z,5.77
2019-02-28T02:16:26.845Z,5.37
2019-02-28T02:18:54.561Z,5.50
2019-02-28T02:21:34.879Z,6.03
2019-02-28T02:24:02.735Z,6.90
2019-02-28T02:26:34.786Z,6.27
2019-02-28T02:29:10.135Z,5.40
2019-02-28T02:31:39.249Z,5.43
2019-02-28T02:34:10.487Z,4.97
2019-02-28T02:36:39.292Z,4.80
2019-02-28T02:39:08.588Z,5.40
2019-02-28T02:41:37.678Z,6.50
2019-02-28T02:44:08.251Z,5.73
2019-02-28T02:46:37.512Z,6.13
2019-02-28T02:49:06.649Z,6.27
2019-02-28T02:51:37.091Z,5.20
2019-02-28T02:54:06.453Z,5.40
2019-02-28T02:56:40.739Z,4.73
2019-02-28T02:59:15.785Z,5.30
2019-02-28T03:01:44.898Z,6.57
2019-02-28T03:04:21.399Z,7.30
2019-02-28T03:06:46.852Z,6.10
2019-02-28T03:09:17.493Z,5.47
2019-02-28T03:11:46.566Z,6.50
2019-02-28T03:14:17.727Z,6.80
2019-02-28T03:16:47.108Z,6.20
2019-02-28T03:19:16.322Z,6.90
2019-02-28T03:21:51.052Z,6.07
2019-02-28T03:24:18.587Z,6.83
2019-02-28T03:26:52.168Z,6.10
2019-02-28T03:29:22.581Z,5.73
2019-02-28T03:31:56.437Z,7.17
2019-02-28T03:34:22.679Z,6.20
2019-02-28T03:36:56.986Z,7.00
2019-02-28T03:39:24.586Z,5.83
2019-02-28T03:41:57.722Z,6.60
2019-02-28T03:44:26.819Z,7.47
2019-02-28T03:46:56.001Z,6.13
2019-02-28T03:49:25.200Z,6.77
2019-02-28T03:51:54.377Z,7.20
2019-02-28T03:54:28.890Z,6.07
2019-02-28T03:56:57.546Z,6.80
2019-02-28T03:59:32.012Z,6.97
2019-02-28T04:02:02.930Z,7.60
2019-02-28T04:04:37.375Z,6.70
2019-02-28T04:07:06.495Z,7.00
2019-02-28T04:09:35.947Z,6.43
2019-02-28T04:12:08.719Z,6.30
2019-02-28T04:14:35.954Z,6.07
2019-02-28T04:17:05.113Z,6.57
2019-02-28T04:19:34.206Z,6.70
2019-02-28T04:22:05.789Z,7.20
2019-02-28T04:24:34.916Z,6.27
2019-02-28T04:27:07.050Z,6.80
2019-02-28T04:29:34.947Z,6.87
2019-02-28T04:32:04.889Z,6.80
2019-02-28T04:34:36.396Z,7.03
2019-02-28T04:37:08.538Z,7.50
2019-02-28T04:39:38.873Z,6.73
2019-02-28T04:42:08.044Z,6.87
2019-02-28T04:44:38.670Z,8.40
2019-02-28T04:47:07.900Z,6.50
2019-02-28T04:49:40.385Z,6.97
2019-02-28T04:52:11.845Z,6.50
2019-02-28T04:54:40.530Z,7.10
2019-02-28T04:57:09.699Z,7.30
2019-02-28T04:59:40.136Z,7.53
2019-02-28T05:02:12.538Z,6.57
2019-02-28T05:04:44.755Z,6.43
2019-02-28T05:07:14.144Z,6.60
2019-02-28T05:09:45.246Z,8.80
2019-02-28T05:12:15.424Z,8.50
2019-02-28T05:14:44.570Z,7.47
2019-02-28T05:17:19.391Z,6.37
2019-02-28T05:19:49.053Z,6.37
2019-02-28T05:22:30.332Z,6.00
2019-02-28T05:24:59.489Z,6.80
2019-02-28T05:27:35.613Z,8.57
2019-02-28T05:30:03.481Z,7.17
2019-02-28T05:32:35.635Z,7.47
2019-02-28T05:35:03.597Z,6.53
2019-02-28T05:37:33.872Z,8.17
2019-02-28T05:40:06.070Z,13.80
2019-02-28T05:42:33.797Z,9.50
2019-02-28T05:45:04.664Z,8.13
2019-02-28T05:47:44.757Z,7.70
2019-02-28T05:50:16.623Z,6.70
2019-02-28T05:52:44.764Z,8.80
2019-02-28T05:55:14.243Z,6.50
2019-02-28T05:57:44.783Z,7.27
2019-02-28T06:00:16.710Z,7.60
2019-02-28T06:02:47.422Z,6.43
2019-02-28T06:05:17.601Z,6.90
2019-02-28T06:07:48.122Z,9.60
2019-02-28T06:10:23.513Z,7.00
2019-02-28T06:12:51.050Z,8.50
2019-02-28T06:15:23.456Z,9.40
2019-02-28T06:17:54.991Z,7.73
2019-02-28T06:20:23.721Z,7.40
2019-02-28T06:22:53.425Z,9.03
2019-02-28T06:25:27.183Z,8.00
2019-02-28T06:27:57.114Z,8.53
2019-02-28T06:30:27.825Z,10.80
2019-02-28T06:32:59.154Z,8.63
2019-02-28T06:35:28.668Z,9.00
2019-02-28T06:37:58.087Z,10.33
2019-02-28T06:40:32.663Z,10.10
2019-02-28T06:42:58.433Z,10.60
2019-02-28T06:45:29.669Z,9.30
2019-02-28T06:47:59.514Z,10.77
2019-02-28T06:50:29.372Z,10.23
2019-02-28T06:52:59.974Z,9.67
2019-02-28T06:55:29.019Z,9.93
2019-02-28T06:58:00.163Z,8.93
2019-02-28T07:00:29.375Z,9.17
2019-02-28T07:03:04.383Z,9.70
2019-02-28T07:05:36.333Z,9.87
2019-02-28T07:08:28.797Z,8.70
2019-02-28T07:10:59.290Z,10.60
2019-02-28T07:13:28.401Z,8.83
2019-02-28T07:15:59.912Z,9.67
2019-02-28T07:18:29.189Z,6.60
2019-02-28T07:20:58.453Z,7.03
2019-02-28T07:23:30.028Z,7.20
2019-02-28T07:26:00.422Z,7.00
2019-02-28T07:28:29.607Z,7.80
2019-02-28T07:30:58.745Z,6.10
2019-02-28T07:33:31.258Z,6.30
2019-02-28T07:36:09.593Z,7.07
2019-02-28T07:38:47.717Z,5.87
2019-02-28T07:41:17.413Z,6.63
2019-02-28T07:43:48.091Z,6.10
2019-02-28T07:46:21.320Z,5.93
2019-02-28T07:48:50.523Z,6.83
2019-02-28T07:51:23.928Z,7.73
2019-02-28T07:53:53.010Z,6.13
2019-02-28T07:56:23.913Z,6.10
2019-02-28T07:58:53.784Z,7.43
2019-02-28T08:01:24.508Z,6.07
2019-02-28T08:03:53.864Z,4.67
2019-02-28T08:06:24.086Z,6.87
2019-02-28T08:08:58.585Z,6.43
2019-02-28T08:11:27.691Z,6.87
2019-02-28T08:13:56.933Z,6.60
2019-02-28T08:16:34.060Z,5.47
2019-02-28T08:19:04.529Z,6.40
2019-02-28T08:21:33.740Z,6.07
2019-02-28T08:24:05.357Z,6.30
2019-02-28T08:26:33.731Z,6.93
2019-02-28T08:29:02.940Z,6.70
2019-02-28T08:31:33.029Z,7.00
2019-02-28T08:34:03.544Z,7.33
2019-02-28T08:36:35.993Z,6.60
2019-02-28T08:39:12.017Z,8.33
2019-02-28T08:41:43.131Z,7.90
2019-02-28T08:44:14.399Z,7.30
2019-02-28T08:46:46.380Z,7.47
2019-02-28T08:49:19.439Z,8.63
2019-02-28T08:51:48.990Z,8.07
2019-02-28T08:54:26.113Z,8.37
2019-02-28T08:56:52.371Z,8.50
2019-02-28T08:59:26.550Z,8.40
2019-02-28T09:02:02.250Z,8.50
2019-02-28T09:04:41.482Z,10.00
2019-02-28T09:07:15.903Z,11.90
2019-02-28T09:09:46.860Z,12.20
2019-02-28T09:12:17.249Z,11.00
2019-02-28T09:14:46.460Z,11.17
2019-02-28T09:17:18.540Z,12.60
2019-02-28T09:19:47.446Z,10.87
2019-02-28T09:22:20.279Z,11.40
2019-02-28T09:24:49.438Z,11.40
2019-02-28T09:27:18.619Z,9.67
2019-02-28T09:29:54.525Z,10.77
2019-02-28T09:32:23.774Z,10.20
2019-02-28T09:34:56.095Z,10.50
2019-02-28T09:37:29.549Z,9.90
2019-02-28T09:40:07.670Z,10.53
2019-02-28T09:42:38.671Z,9.60
2019-02-28T09:45:10.219Z,9.63
2019-02-28T09:47:39.774Z,10.07
2019-02-28T09:50:13.415Z,10.47
2019-02-28T09:52:45.699Z,8.53
2019-02-28T09:55:28.045Z,10.90
2019-02-28T09:57:57.601Z,10.60
2019-02-28T10:00:32.132Z,10.37
2019-02-28T10:03:01.252Z,10.30
2019-02-28T10:05:30.420Z,11.40
2019-02-28T10:08:02.903Z,10.57
2019-02-28T10:10:33.447Z,10.00
2019-02-28T10:13:02.601Z,10.50
2019-02-28T10:15:31.881Z,10.17
2019-02-28T10:18:04.365Z,10.67
2019-02-28T10:20:33.489Z,11.03
2019-02-28T10:23:04.179Z,9.23
2019-02-28T10:25:33.664Z,10.10
2019-02-28T10:28:04.065Z,9.80
2019-02-28T10:30:33.319Z,10.40
2019-02-28T10:33:04.562Z,8.90
2019-02-28T10:35:37.601Z,10.03
2019-02-28T10:38:07.035Z,9.27
2019-02-28T10:40:36.551Z,10.67
2019-02-28T10:43:15.085Z,10.20
2019-02-28T10:45:41.991Z,9.43
2019-02-28T10:48:12.355Z,9.17
2019-02-28T10:50:43.033Z,8.03
2019-02-28T10:53:12.745Z,9.37
2019-02-28T10:55:43.716Z,9.03
2019-02-28T10:58:22.439Z,9.80
2019-02-28T11:00:52.092Z,9.10
2019-02-28T11:03:24.179Z,8.90
2019-02-28T11:05:56.258Z,8.67
2019-02-28T11:08:25.805Z,8.90
2019-02-28T11:10:56.828Z,8.93
2019-02-28T11:13:28.490Z,10.00
2019-02-28T11:16:00.895Z,9.43
2019-02-28T11:18:36.415Z,9.97
2019-02-28T11:21:10.026Z,8.57
2019-02-28T11:23:41.601Z,8.70
2019-02-28T11:26:14.823Z,9.03
2019-02-28T11:28:50.496Z,9.10
2019-02-28T11:31:23.054Z,8.80
2019-02-28T11:33:52.910Z,8.40
2019-02-28T11:36:22.420Z,8.80
2019-02-28T11:38:52.523Z,8.97
2019-02-28T11:41:22.709Z,7.17
2019-02-28T11:43:52.094Z,7.90
2019-02-28T11:46:28.798Z,7.53
2019-02-28T11:49:03.738Z,8.30
2019-02-28T11:51:38.615Z,8.40
2019-02-28T11:54:13.471Z,8.30
2019-02-28T11:56:42.696Z,8.07
2019-02-28T11:59:11.921Z,9.30
2019-02-28T12:01:42.479Z,7.97
2019-02-28T12:04:12.407Z,9.40
2019-02-28T12:06:42.586Z,8.10
2019-02-28T12:09:16.336Z,9.00
2019-02-28T12:11:47.408Z,7.17
2019-02-28T12:14:16.545Z,7.83
2019-02-28T12:16:45.669Z,9.00
2019-02-28T12:19:15.853Z,8.80
2019-02-28T12:21:49.071Z,8.47
2019-02-28T12:24:18.217Z,7.97
2019-02-28T12:26:52.595Z,8.40
2019-02-28T12:29:26.141Z,8.87
2019-02-28T12:31:58.811Z,8.57
2019-02-28T12:34:33.924Z,8.13
2019-02-28T12:37:03.070Z,9.47
2019-02-28T12:39:54.423Z,9.97
2019-02-28T12:42:03.134Z,10.47
2019-02-28T12:44:32.250Z,8.77
2019-02-28T12:47:03.350Z,10.63
2019-02-28T12:49:33.224Z,9.77
2019-02-28T12:52:03.114Z,10.23
2019-02-28T12:54:33.505Z,10.70
2019-02-28T12:57:03.483Z,11.77
2019-02-28T12:59:34.705Z,10.60
2019-02-28T13:02:07.356Z,11.47
2019-02-28T13:04:35.889Z,11.60
2019-02-28T13:07:05.999Z,12.17
2019-02-28T13:09:35.093Z,10.70
2019-02-28T13:12:08.118Z,12.83
2019-02-28T13:14:40.706Z,11.70
2019-02-28T13:17:09.371Z,12.40
2019-02-28T13:19:40.576Z,12.57
2019-02-28T13:22:12.251Z,10.87
2019-02-28T13:24:47.635Z,11.50
2019-02-28T13:27:18.980Z,12.73
2019-02-28T13:29:53.250Z,11.67
2019-02-28T13:32:22.461Z,12.00
2019-02-28T13:34:53.242Z,11.97
2019-02-28T13:37:22.673Z,12.13
2019-02-28T13:39:52.880Z,11.43
2019-02-28T13:42:24.987Z,12.70
2019-02-28T13:44:56.111Z,11.93
2019-02-28T13:47:25.583Z,11.47
2019-02-28T13:50:05.414Z,11.43
2019-02-28T13:52:38.474Z,10.60
2019-02-28T13:55:09.029Z,11.90
2019-02-28T13:57:40.739Z,11.23
2019-02-28T14:00:20.593Z,11.93
2019-02-28T14:02:55.126Z,11.07
2019-02-28T14:05:24.648Z,10.93
2019-02-28T14:07:57.180Z,11.70
2019-02-28T14:10:29.675Z,10.00
2019-02-28T14:12:58.247Z,12.40
2019-02-28T14:15:30.264Z,12.20
2019-02-28T14:18:11.635Z,10.23
2019-02-28T14:20:40.973Z,10.27
2019-02-28T14:23:20.172Z,10.90
2019-02-28T14:25:47.988Z,11.10
2019-02-28T14:28:22.985Z,10.97
2019-02-28T14:30:58.759Z,11.63
2019-02-28T14:33:29.854Z,13.10
2019-02-28T14:35:59.352Z,11.53
2019-02-28T14:38:33.783Z,11.50
2019-02-28T14:41:03.122Z,11.50
2019-02-28T14:43:38.859Z,11.87
2019-02-28T14:46:11.171Z,11.97
2019-02-28T14:48:40.776Z,11.03
2019-02-28T14:51:12.165Z,13.00
2019-02-28T14:53:41.392Z,10.73
2019-02-28T14:56:10.860Z,11.27
2019-02-28T14:58:40.299Z,10.17
2019-02-28T15:01:09.617Z,9.50
2019-02-28T15:03:39.430Z,10.10
2019-02-28T15:06:08.696Z,10.70
2019-02-28T15:08:37.846Z,9.43
2019-02-28T15:11:10.274Z,10.70
2019-02-28T15:13:38.157Z,9.70
2019-02-28T15:16:08.380Z,9.37
2019-02-28T15:18:37.533Z,11.40
2019-02-28T15:21:08.462Z,11.70
2019-02-28T15:23:37.618Z,11.63
2019-02-28T15:26:06.919Z,12.97
2019-02-28T15:28:36.528Z,14.03
2019-02-28T15:31:09.455Z,15.10
2019-02-28T15:33:40.598Z,14.00
2019-02-28T15:36:12.377Z,13.03
2019-02-28T15:38:41.920Z,16.87
2019-02-28T15:41:15.599Z,16.17
2019-02-28T15:43:47.086Z,14.90
2019-02-28T15:46:18.195Z,15.00
2019-02-28T15:48:49.470Z,15.43
2019-02-28T15:51:25.671Z,15.60
2019-02-28T15:54:00.941Z,15.73
2019-02-28T15:56:30.096Z,15.37
2019-02-28T15:59:03.443Z,17.63
2019-02-28T16:01:33.201Z,18.80
2019-02-28T16:04:02.301Z,16.37
2019-02-28T16:06:31.403Z,15.37
2019-02-28T16:09:00.557Z,17.33
2019-02-28T16:11:32.186Z,16.50
2019-02-28T16:14:01.378Z,17.30
2019-02-28T16:16:30.511Z,17.93
2019-02-28T16:19:03.438Z,16.37
2019-02-28T16:21:32.548Z,18.07
2019-02-28T16:24:06.126Z,17.50
2019-02-28T16:26:37.680Z,14.87
2019-02-28T16:29:06.811Z,16.13
2019-02-28T16:31:38.562Z,15.93
2019-02-28T16:34:20.731Z,15.00
2019-02-28T16:36:49.956Z,16.43
2019-02-28T16:39:20.171Z,17.10
2019-02-28T16:41:49.788Z,15.57
2019-02-28T16:44:19.176Z,14.23
2019-02-28T16:46:50.020Z,12.50
2019-02-28T16:49:19.257Z,14.03
2019-02-28T16:51:49.508Z,12.37
2019-02-28T16:54:19.367Z,13.43
2019-02-28T16:56:49.449Z,12.30
2019-02-28T16:59:19.907Z,11.90
2019-02-28T17:01:57.033Z,12.10
2019-02-28T17:04:31.102Z,11.87
2019-02-28T17:07:03.195Z,11.97
2019-02-28T17:09:38.930Z,10.50
2019-02-28T17:12:27.173Z,9.97
2019-02-28T17:15:03.775Z,11.17
2019-02-28T17:17:54.877Z,10.07
2019-02-28T17:20:24.025Z,10.90
2019-02-28T17:22:53.304Z,10.97
2019-02-28T17:25:26.375Z,9.97
2019-02-28T17:28:07.007Z,10.60
2019-02-28T17:30:45.855Z,10.80
2019-02-28T17:33:16.715Z,10.10
2019-02-28T17:35:48.391Z,11.03
2019-02-28T17:38:18.564Z,10.83
2019-02-28T17:40:47.609Z,11.87
2019-02-28T17:46:02.857Z,13.13
2019-02-28T17:49:16.198Z,10.60
2019-02-28T17:51:55.539Z,12.40
2019-02-28T17:55:16.119Z,11.50
2019-02-28T17:58:16.195Z,13.90
2019-02-28T18:01:31.381Z,12.20
2019-02-28T18:04:45.236Z,13.10
2019-02-28T18:07:37.437Z,13.40
2019-02-28T18:11:02.148Z,12.47
2019-02-28T18:14:09.485Z,13.33
2019-02-28T18:17:23.812Z,12.30
2019-02-28T18:20:07.577Z,12.47
2019-02-28T18:22:48.676Z,12.50
2019-02-28T18:26:08.961Z,12.83
2019-02-28T18:29:04.965Z,10.80
2019-02-28T18:31:35.947Z,10.80
2019-02-28T18:34:11.275Z,10.10
2019-02-28T18:36:44.343Z,10.97
2019-02-28T18:39:13.763Z,11.57
2019-02-28T18:41:43.210Z,9.40
2019-02-28T18:44:12.867Z,8.87
2019-02-28T18:46:42.073Z,8.13
2019-02-28T18:49:11.171Z,8.23
2019-02-28T18:51:41.779Z,7.33
2019-02-28T18:54:11.236Z,8.40
2019-02-28T18:56:40.482Z,8.30
2019-02-28T18:59:13.810Z,6.80
2019-02-28T19:01:44.634Z,6.30
2019-02-28T19:04:15.344Z,5.27
2019-02-28T19:06:50.297Z,6.27
2019-02-28T19:09:24.616Z,5.30
2019-02-28T19:11:53.735Z,4.63
2019-02-28T19:14:25.204Z,4.90
2019-02-28T19:16:56.958Z,5.37
2019-02-28T19:19:26.085Z,5.20
2019-02-28T19:21:56.614Z,5.37
2019-02-28T19:24:28.687Z,4.60
2019-02-28T19:27:01.483Z,5.17
2019-02-28T19:29:31.285Z,3.93
2019-02-28T19:32:01.037Z,4.30
2019-02-28T19:34:30.233Z,3.70
2019-02-28T19:37:00.822Z,5.50
2019-02-28T19:39:32.333Z,4.30
2019-02-28T19:42:03.321Z,5.57
2019-02-28T19:44:32.418Z,4.40
2019-02-28T19:47:01.716Z,5.17
2019-02-28T19:49:30.817Z,3.73
2019-02-28T19:52:00.137Z,4.20
2019-02-28T19:54:31.718Z,5.10
2019-02-28T19:57:01.972Z,4.80
2019-02-28T19:59:38.951Z,3.77
2019-02-28T20:02:10.063Z,4.90
2019-02-28T20:04:39.176Z,5.10
2019-02-28T20:07:09.392Z,5.17
2019-02-28T20:09:38.526Z,4.20
2019-02-28T20:12:10.109Z,4.10
2019-02-28T20:14:39.249Z,4.03
2019-02-28T20:17:19.537Z,4.00
2019-02-28T20:19:40.300Z,4.47
2019-02-28T20:22:09.655Z,4.20
2019-02-28T20:24:41.835Z,3.47
2019-02-28T20:27:11.259Z,3.27
2019-02-28T20:29:43.559Z,3.97
2019-02-28T20:32:13.668Z,3.73
2019-02-28T20:34:42.820Z,4.70
2019-02-28T20:37:12.083Z,4.10
2019-02-28T20:39:43.951Z,4.10
2019-02-28T20:42:14.565Z,3.50
2019-02-28T20:44:48.183Z,3.13
2019-02-28T20:47:19.668Z,4.20
2019-02-28T20:49:57.089Z,3.43
2019-02-28T20:52:30.320Z,3.53
2019-02-28T20:54:57.185Z,3.17
2019-02-28T20:57:28.843Z,3.20
2019-02-28T20:59:58.014Z,3.57
2019-02-28T21:02:31.617Z,3.27
2019-02-28T21:05:02.226Z,2.70
2019-02-28T21:07:31.374Z,2.87
2019-02-28T21:10:00.523Z,3.80
2019-02-28T21:12:29.624Z,2.80
2019-02-28T21:14:58.805Z,3.40
2019-02-28T21:17:29.589Z,2.90
2019-02-28T21:19:59.987Z,2.70
2019-02-28T21:22:30.140Z,4.33
2019-02-28T21:25:00.005Z,2.77
2019-02-28T21:27:29.426Z,3.60
2019-02-28T21:30:04.494Z,2.80
2019-02-28T21:32:36.258Z,3.70
2019-02-28T21:35:11.073Z,3.23
2019-02-28T21:37:41.148Z,2.77
2019-02-28T21:40:11.262Z,2.53
2019-02-28T21:42:40.363Z,4.30
2019-02-28T21:45:14.744Z,3.73
2019-02-28T21:47:43.862Z,2.30
2019-02-28T21:50:19.972Z,2.70
2019-02-28T21:52:50.894Z,2.63
2019-02-28T21:55:26.013Z,2.80
2019-02-28T21:57:56.162Z,2.10
2019-02-28T22:00:27.754Z,3.57
2019-02-28T22:02:56.861Z,2.30
2019-02-28T22:05:27.089Z,2.93
2019-02-28T22:07:57.817Z,3.00
2019-02-28T22:10:27.174Z,2.53
2019-02-28T22:12:56.291Z,3.80
2019-02-28T22:15:26.609Z,3.20
2019-02-28T22:18:02.029Z,2.93
2019-02-28T22:20:31.205Z,2.47
2019-02-28T22:23:00.516Z,2.70
2019-02-28T22:25:30.806Z,2.93
2019-02-28T22:28:02.459Z,2.80
2019-02-28T22:30:50.482Z,2.93
2019-02-28T22:33:38.033Z,4.00
2019-02-28T22:36:10.765Z,2.97
2019-02-28T22:38:41.016Z,2.53
2019-02-28T22:41:14.636Z,2.20
2019-02-28T22:43:43.804Z,2.80
2019-02-28T22:46:12.902Z,2.47
2019-02-28T22:48:44.186Z,2.30
2019-02-28T22:51:14.435Z,2.50
2019-02-28T22:53:45.313Z,2.33
2019-02-28T22:56:14.418Z,2.23
2019-02-28T22:58:43.507Z,2.40
2019-02-28T23:01:14.775Z,2.50
2019-02-28T23:03:44.135Z,2.13
2019-02-28T23:06:14.346Z,2.20
2019-02-28T23:08:43.454Z,1.87
2019-02-28T23:11:12.959Z,2.37
2019-02-28T23:13:42.549Z,2.50
2019-02-28T23:16:15.271Z,2.00
2019-02-28T23:18:47.494Z,2.37
2019-02-28T23:21:19.630Z,2.20
2019-02-28T23:23:48.773Z,1.90
2019-02-28T23:26:19.011Z,2.63
2019-02-28T23:29:20.925Z,2.47
2019-02-28T23:32:32.881Z,2.60
2019-02-28T23:35:01.999Z,2.30
2019-02-28T23:37:31.603Z,2.53
2019-02-28T23:40:01.028Z,2.87
2019-02-28T23:42:30.235Z,2.70
2019-02-28T23:44:59.330Z,3.00
2019-02-28T23:47:30.312Z,2.63
2019-02-28T23:49:59.893Z,3.03
2019-02-28T23:52:32.397Z,3.57
2019-02-28T23:55:01.561Z,3.10
2019-02-28T23:57:30.764Z,3.90
2019-02-28T23:59:59.855Z,3.33
